Time;durP1;ratioP1;P1;durP2;ratioP2;P2;SDS_P1;SDS_P2;PMS_P1;PMS_P2;Temp;Humidity;BMP_temperature;BMP_pressure;BME280_temperature;BME280_humidity;BME280_pressure;Samples;Min_cycle;Max_cycle;Signal;HPM_P1;HPM_P2
2022/03/07 00:00:55;;;;;;;1.38;1.20;;;;;;;-145.06;0.00;60892.56;4672316;29;20038;-91
2022/03/07 00:03:36;;;;;;;1.63;1.25;;;;;;;-145.06;0.00;60892.56;4672823;29;20034;-91
2022/03/07 00:06:16;;;;;;;1.63;1.17;;;;;;;-145.06;0.00;60892.56;4672906;29;20041;-90
2022/03/07 00:08:55;;;;;;;1.67;1.30;;;;;;;-145.06;0.00;60892.56;4673969;29;20025;-91
2022/03/07 00:11:42;;;;;;;1.90;1.50;;;;;;;-145.06;0.00;60892.56;4667240;29;20287;-91
2022/03/07 00:14:22;;;;;;;2.15;1.33;;;;;;;-145.06;0.00;60892.56;4673370;29;20049;-92
2022/03/07 00:17:00;;;;;;;1.67;1.45;;;;;;;-145.06;0.00;60892.56;4671395;29;20497;-90
2022/03/07 00:19:39;;;;;;;2.07;1.30;;;;;;;-145.06;0.00;60892.56;4669101;29;20037;-90
2022/03/07 00:22:19;;;;;;;1.70;1.13;;;;;;;-145.06;0.00;60892.56;4672928;29;20275;-90
2022/03/07 00:24:58;;;;;;;1.90;1.43;;;;;;;-145.06;0.00;60892.56;4671556;29;20038;-90
2022/03/07 00:27:37;;;;;;;1.88;1.33;;;;;;;-145.06;0.00;60892.56;4674723;29;20034;-91
2022/03/07 00:30:17;;;;;;;1.83;1.52;;;;;;;-145.06;0.00;60892.56;4673773;29;20061;-92
2022/03/07 00:32:56;;;;;;;2.08;1.15;;;;;;;-145.06;0.00;60892.56;4666969;29;20046;-91
2022/03/07 00:35:35;;;;;;;2.28;1.40;;;;;;;-145.06;0.00;60892.56;4671301;29;20469;-91
2022/03/07 00:38:14;;;;;;;1.73;1.20;;;;;;;-145.06;0.00;60892.56;4674360;29;20113;-90
2022/03/07 00:40:54;;;;;;;2.40;1.25;;;;;;;-145.06;0.00;60892.56;4674187;29;20033;-91
2022/03/07 00:43:33;;;;;;;2.88;1.70;;;;;;;-145.06;0.00;60892.56;4673990;29;20069;-91
2022/03/07 00:46:12;;;;;;;1.90;1.35;;;;;;;-145.06;0.00;60892.56;4661502;29;20045;-91
2022/03/07 00:48:51;;;;;;;1.50;1.17;;;;;;;-145.06;0.00;60892.56;4670860;29;20501;-91
2022/03/07 00:51:30;;;;;;;1.87;1.43;;;;;;;-145.06;0.00;60892.56;4668500;29;20076;-91
2022/03/07 00:54:10;;;;;;;2.27;1.60;;;;;;;-145.06;0.00;60892.56;4664094;29;20034;-91
2022/03/07 00:56:49;;;;;;;2.35;1.55;;;;;;;-145.06;0.00;60892.56;4673399;29;20042;-90
2022/03/07 00:59:29;;;;;;;1.83;1.38;;;;;;;-145.06;0.00;60892.56;4674349;29;20034;-90
2022/03/07 01:02:10;;;;;;;2.23;1.30;;;;;;;-145.06;0.00;60892.56;4674213;29;20378;-90
2022/03/07 01:04:49;;;;;;;1.48;1.20;;;;;;;-145.06;0.00;60892.56;4671356;29;20023;-89
2022/03/07 01:07:28;;;;;;;2.13;1.20;;;;;;;-145.06;0.00;60892.56;4674384;29;20023;-91
2022/03/07 01:10:07;;;;;;;1.35;1.02;;;;;;;1.59;0.00;60892.56;4673263;29;20287;-92
2022/03/07 01:12:49;;;;;;;2.65;1.10;;;;;;;-145.06;0.00;60892.56;4677140;29;20370;-89
2022/03/07 01:15:31;;;;;;;1.70;1.30;;;;;;;5.49;0.00;60892.56;4676608;29;20038;-91
2022/03/07 01:18:10;;;;;;;2.05;1.33;;;;;;;-145.06;0.00;60892.56;4668546;29;20046;-90
2022/03/07 01:20:49;;;;;;;2.53;1.60;;;;;;;-145.06;0.00;60892.56;4663003;29;20030;-91
2022/03/07 01:23:31;;;;;;;1.80;1.30;;;;;;;-145.06;0.00;60892.56;4675297;29;20117;-91
2022/03/07 01:26:10;;;;;;;1.38;1.27;;;;;;;-145.06;0.00;60892.56;4674463;29;20477;-90
2022/03/07 01:28:49;;;;;;;1.52;1.30;;;;;;;-145.06;0.00;60892.56;4671773;29;20042;-91
2022/03/07 01:31:28;;;;;;;1.90;1.40;;;;;;;-145.06;0.00;60892.56;4669240;29;20039;-91
2022/03/07 01:34:07;;;;;;;1.90;1.40;;;;;;;-145.06;0.00;60892.56;4678318;29;20037;-90
2022/03/07 01:36:46;;;;;;;1.30;1.20;;;;;;;-145.06;0.00;60892.56;4676665;29;20291;-90
2022/03/07 01:39:25;;;;;;;2.58;1.40;;;;;;;-145.06;0.00;60892.56;4667525;29;20093;-91
2022/03/07 01:42:04;;;;;;;1.60;1.20;;;;;;;-145.06;0.00;60892.56;4671930;29;20614;-91
2022/03/07 01:44:42;;;;;;;2.20;1.20;;;;;;;-145.06;0.00;60892.56;4665850;29;20058;-91
2022/03/07 01:47:23;;;;;;;2.00;1.47;;;;;;;-145.06;0.00;60892.56;4672300;29;20026;-92
2022/03/07 01:50:09;;;;;;;1.35;1.17;;;;;;;-145.06;0.00;60892.56;4698685;29;20287;-92
2022/03/07 01:52:53;;;;;;;1.67;1.35;;;;;;;-145.06;0.00;60892.56;4686908;29;20614;-91
2022/03/07 01:55:32;;;;;;;1.45;1.35;;;;;;;-145.06;0.00;60892.56;4679509;29;20046;-91
2022/03/07 01:58:12;;;;;;;1.48;1.27;;;;;;;-145.06;0.00;60892.56;4674092;29;20042;-91
2022/03/07 02:00:51;;;;;;;1.42;1.20;;;;;;;-145.06;0.00;60892.56;4670893;29;20042;-90
2022/03/07 02:03:30;;;;;;;1.95;1.20;;;;;;;-145.06;0.00;60892.56;4672486;29;20030;-90
2022/03/07 02:06:10;;;;;;;1.63;1.40;;;;;;;-145.06;0.00;60892.56;4664063;29;20046;-91
2022/03/07 02:08:51;;;;;;;1.52;1.23;;;;;;;-145.06;0.00;60892.56;4675024;29;20534;-90
2022/03/07 02:11:29;;;;;;;2.25;1.35;;;;;;;-145.06;0.00;60892.56;4668851;29;20034;-90
2022/03/07 02:14:16;;;;;;;1.67;1.53;;;;;;;-145.06;0.00;60892.56;4673290;29;20045;-90
2022/03/07 02:16:56;;;;;;;1.42;1.10;;;;;;;-145.06;0.00;60892.56;4662884;29;20700;-91
2022/03/07 02:19:36;;;;;;;2.55;1.35;;;;;;;-145.06;0.00;60892.56;4672625;29;20038;-90
2022/03/07 02:22:16;;;;;;;1.52;1.30;;;;;;;-145.06;0.00;60892.56;4674844;29;20034;-91
2022/03/07 02:24:55;;;;;;;2.53;1.48;;;;;;;-145.06;0.00;60892.56;4674296;29;20108;-91
2022/03/07 02:27:34;;;;;;;1.50;1.35;;;;;;;-145.06;0.00;60892.56;4675165;29;20034;-91
2022/03/07 02:30:13;;;;;;;1.75;1.10;;;;;;;-145.06;0.00;60892.56;4668360;29;20037;-91
2022/03/07 02:32:52;;;;;;;1.58;1.30;;;;;;;-145.06;0.00;60892.56;4665527;29;20035;-90
2022/03/07 02:35:31;;;;;;;2.63;1.30;;;;;;;-145.06;0.00;60892.56;4669743;29;20069;-91
2022/03/07 02:38:13;;;;;;;1.55;1.35;;;;;;;-145.06;0.00;60892.56;4670069;29;20042;-90
2022/03/07 02:40:51;;;;;;;1.25;0.90;;;;;;;-145.06;0.00;60892.56;4670735;29;20050;-91
2022/03/07 02:43:30;;;;;;;1.87;1.13;;;;;;;-145.06;0.00;60892.56;4665919;29;20030;-92
2022/03/07 02:46:09;;;;;;;1.48;1.02;;;;;;;-145.06;0.00;60892.56;4671754;29;20037;-90
2022/03/07 02:48:48;;;;;;;1.50;1.20;;;;;;;-145.06;0.00;60892.56;4670889;29;20125;-90
2022/03/07 02:51:27;;;;;;;1.27;1.17;;;;;;;-145.06;0.00;60892.56;4671219;29;20034;-90
2022/03/07 02:54:06;;;;;;;1.80;1.27;;;;;;;-145.06;0.00;60892.56;4668771;29;20046;-90
2022/03/07 02:56:47;;;;;;;2.53;1.30;;;;;;;-145.06;0.00;60892.56;4675231;29;20030;-90
2022/03/07 02:59:26;;;;;;;1.30;1.10;;;;;;;-145.06;0.00;60892.56;4670275;29;20041;-89
2022/03/07 03:02:05;;;;;;;1.73;1.30;;;;;;;-145.06;0.00;60892.56;4669549;29;20034;-90
2022/03/07 03:04:44;;;;;;;1.65;1.08;;;;;;;-145.06;0.00;60892.56;4670545;29;20114;-90
2022/03/07 03:07:23;;;;;;;1.67;1.30;;;;;;;-145.06;0.00;60892.56;4674181;29;20038;-90
2022/03/07 03:10:03;;;;;;;1.10;1.00;;;;;;;-145.06;0.00;60892.56;4671703;29;20046;-90
2022/03/07 03:12:42;;;;;;;1.10;1.00;;;;;;;-145.06;0.00;60892.56;4671434;29;20113;-90
2022/03/07 03:15:22;;;;;;;1.70;0.93;;;;;;;-145.06;0.00;60892.56;4670922;29;20050;-90
2022/03/07 03:18:02;;;;;;;1.17;1.00;;;;;;;-145.06;0.00;60892.56;4674116;29;20037;-91
2022/03/07 03:20:43;;;;;;;2.28;1.00;;;;;;;-145.06;0.00;60892.56;4667901;29;20038;-89
2022/03/07 03:23:25;;;;;;;1.38;0.93;;;;;;;-145.06;0.00;60892.56;4671776;29;20369;-90
2022/03/07 03:26:04;;;;;;;1.30;1.05;;;;;;;-145.06;0.00;60892.56;4670683;29;20045;-89
2022/03/07 03:28:43;;;;;;;1.20;1.10;;;;;;;-145.06;0.00;60892.56;4674172;29;20029;-90
2022/03/07 03:31:22;;;;;;;1.53;1.20;;;;;;;-145.06;0.00;60892.56;4674186;29;20033;-89
2022/03/07 03:34:01;;;;;;;1.05;0.90;;;;;;;-145.06;0.00;60892.56;4666179;29;20278;-90
2022/03/07 03:36:40;;;;;;;1.33;1.10;;;;;;;-145.06;0.00;60892.56;4674411;29;20030;-89
2022/03/07 03:39:19;;;;;;;1.70;1.20;;;;;;;-145.06;0.00;60892.56;4673154;29;20759;-90
2022/03/07 03:41:58;;;;;;;1.20;1.10;;;;;;;-145.06;0.00;60892.56;4659527;29;20271;-90
2022/03/07 03:44:37;;;;;;;1.13;1.00;;;;;;;-145.06;0.00;60892.56;4671819;29;20272;-90
2022/03/07 03:47:16;;;;;;;1.70;1.20;;;;;;;-145.06;0.00;60892.56;4671139;29;20442;-90
2022/03/07 03:49:54;;;;;;;1.80;1.30;;;;;;;-145.06;0.00;60892.56;4674905;29;20552;-90
2022/03/07 03:52:34;;;;;;;1.63;1.10;;;;;;;-145.06;0.00;60892.56;4674845;29;20109;-91
2022/03/07 03:55:15;;;;;;;1.58;1.10;;;;;;;-145.06;0.00;60892.56;4671497;29;20113;-89
2022/03/07 03:57:54;;;;;;;1.48;1.05;;;;;;;-145.06;0.00;60892.56;4669408;29;20034;-91
2022/03/07 04:00:33;;;;;;;1.38;1.20;;;;;;;-145.06;0.00;60892.56;4671586;29;20033;-90
2022/03/07 04:03:12;;;;;;;1.83;1.30;;;;;;;-145.06;0.00;60892.56;4670973;29;20124;-90
2022/03/07 04:05:51;;;;;;;1.65;1.20;;;;;;;-145.06;0.00;60892.56;4669307;29;20386;-90
2022/03/07 04:08:49;;;;;;;1.23;1.13;;;;;;;-145.06;0.00;60892.56;4671807;29;20061;-90
2022/03/07 04:11:28;;;;;;;2.10;1.02;;;;;;;-145.06;0.00;60892.56;4670304;29;20033;-91
2022/03/07 04:14:07;;;;;;;1.30;1.17;;;;;;;-145.06;0.00;60892.56;4673094;29;20034;-90
2022/03/07 04:16:46;;;;;;;1.58;1.20;;;;;;;-145.06;0.00;60892.56;4673668;29;20117;-91
2022/03/07 04:19:25;;;;;;;1.50;1.05;;;;;;;-145.06;0.00;60892.56;4671480;29;20050;-90
2022/03/07 04:22:05;;;;;;;1.75;1.00;;;;;;;-145.06;0.00;60892.56;4660416;29;20031;-89
2022/03/07 04:24:44;;;;;;;1.52;1.02;;;;;;;-145.06;0.00;60892.56;4671849;29;20653;-91
2022/03/07 04:27:24;;;;;;;1.38;1.00;;;;;;;-145.06;0.00;60892.56;4672864;29;20045;-89
2022/03/07 04:30:04;;;;;;;;;;;;;;;-145.06;0.00;60892.56;4668893;29;20038;-90
2022/03/07 04:32:44;;;;;;;0.98;0.88;;;;;;;-145.06;0.00;60892.56;4672969;29;19920;-90
2022/03/07 04:35:23;;;;;;;0.95;0.82;;;;;;;-145.06;0.00;60892.56;4673352;29;20037;-88
2022/03/07 04:38:02;;;;;;;1.25;1.00;;;;;;;-145.06;0.00;60892.56;4663761;29;20042;-90
2022/03/07 04:40:41;;;;;;;1.33;1.07;;;;;;;-145.06;0.00;60892.56;4673454;29;20050;-90
2022/03/07 04:43:21;;;;;;;1.70;1.17;;;;;;;-145.06;0.00;60892.56;4672811;29;20923;-90
2022/03/07 04:46:00;;;;;;;1.58;1.25;;;;;;;-145.06;0.00;60892.56;4665719;29;20043;-90
2022/03/07 04:48:39;;;;;;;1.27;1.10;;;;;;;-145.06;0.00;60892.56;4670395;29;20042;-89
2022/03/07 04:51:18;;;;;;;1.83;1.23;;;;;;;-145.06;0.00;60892.56;4664850;29;20362;-90
2022/03/07 04:53:57;;;;;;;1.23;1.10;;;;;;;-145.06;0.00;60892.56;4671265;29;20485;-90
2022/03/07 04:56:37;;;;;;;0.97;0.93;;;;;;;-145.06;0.00;60892.56;4666815;29;20038;-91
2022/03/07 04:59:16;;;;;;;0.95;0.88;;;;;;;-145.06;0.00;60892.56;4669939;29;20030;-89
2022/03/07 05:01:54;;;;;;;1.43;0.93;;;;;;;-145.06;0.00;60892.56;4673861;29;20033;-90
2022/03/07 05:04:33;;;;;;;1.50;1.10;;;;;;;-145.06;0.00;60892.56;4685976;29;20035;-90
2022/03/07 05:07:12;;;;;;;1.48;1.15;;;;;;;-145.06;0.00;60892.56;4690083;29;20046;-91
2022/03/07 05:09:51;;;;;;;1.65;1.05;;;;;;;-145.06;0.00;60892.56;4666882;29;20049;-91
2022/03/07 05:12:31;;;;;;;1.63;1.20;;;;;;;-145.06;0.00;60892.56;4660879;29;20837;-90
2022/03/07 05:15:11;;;;;;;1.67;1.00;;;;;;;-145.06;0.00;60892.56;4672736;29;20318;-91
2022/03/07 05:17:53;;;;;;;1.23;1.05;;;;;;;-145.06;0.00;60892.56;4667505;29;20034;-90
2022/03/07 05:20:33;;;;;;;1.00;0.90;;;;;;;-145.06;0.00;60892.56;4672424;29;20128;-90
2022/03/07 05:23:12;;;;;;;1.30;1.02;;;;;;;-145.06;0.00;60892.56;4669857;29;20034;-91
2022/03/07 05:25:51;;;;;;;1.17;1.08;;;;;;;-145.06;0.00;60892.56;4666444;29;20121;-89
2022/03/07 05:28:30;;;;;;;1.27;1.05;;;;;;;-145.06;0.00;60892.56;4671553;29;20248;-91
2022/03/07 05:31:12;;;;;;;1.17;1.00;;;;;;;-145.06;0.00;60892.56;4667200;29;20045;-91
2022/03/07 05:33:51;;;;;;;1.33;1.10;;;;;;;-145.06;0.00;60892.56;4674465;29;20065;-90
2022/03/07 05:36:30;;;;;;;1.27;0.97;;;;;;;-145.06;0.00;60892.56;4667447;29;20042;-90
2022/03/07 05:39:10;;;;;;;1.23;1.10;;;;;;;-145.06;0.00;60892.56;4669956;29;20045;-90
2022/03/07 05:41:50;;;;;;;1.10;0.82;;;;;;;-145.06;0.00;60892.56;4663207;29;20038;-90
2022/03/07 05:44:29;;;;;;;1.45;1.20;;;;;;;0.26;0.00;60892.56;4667097;29;20034;-90
2022/03/07 05:47:08;;;;;;;1.60;1.10;;;;;;;187.52;0.00;60892.56;4665120;29;20046;-90
2022/03/07 05:49:46;;;;;;;2.00;1.40;;;;;;;0.29;0.00;60892.56;4665728;29;20046;-90
2022/03/07 05:52:26;;;;;;;1.67;1.35;;;;;;;0.29;0.00;60892.56;4669951;29;20370;-90
2022/03/07 05:55:06;;;;;;;2.15;1.50;;;;;;;-145.06;0.00;60892.56;4671891;29;20042;-90
2022/03/07 05:57:45;;;;;;;2.03;1.50;;;;;;;-145.06;0.00;60892.56;4673160;29;20037;-90
2022/03/07 06:00:24;;;;;;;2.33;1.60;;;;;;;-145.06;0.00;60892.56;4669406;29;20042;-90
2022/03/07 06:03:03;;;;;;;2.83;1.90;;;;;;;-145.06;0.00;60892.56;4667725;29;20037;-91
2022/03/07 06:05:42;;;;;;;2.30;1.40;;;;;;;-145.06;0.00;60892.56;4675796;29;20041;-90
2022/03/07 06:08:21;;;;;;;1.97;1.33;;;;;;;-145.06;0.00;60892.56;4675399;29;20275;-91
2022/03/07 06:11:00;;;;;;;3.40;1.33;;;;;;;-145.06;0.00;60892.56;4675148;29;20037;-90
2022/03/07 06:13:39;;;;;;;1.27;1.10;;;;;;;-145.06;0.00;60892.56;4674917;29;20318;-90
2022/03/07 06:16:18;;;;;;;1.88;1.40;;;;;;;-145.06;0.00;60892.56;4670707;29;20295;-90
2022/03/07 06:18:57;;;;;;;2.07;1.33;;;;;;;-145.06;0.00;60892.56;4664070;29;20034;-90
2022/03/07 06:21:36;;;;;;;2.05;1.33;;;;;;;-145.06;0.00;60892.56;4673841;29;20061;-90
2022/03/07 06:24:14;;;;;;;2.30;1.38;;;;;;;-145.06;0.00;60892.56;4671093;29;20042;-89
2022/03/07 06:26:53;;;;;;;1.90;1.20;;;;;;;-145.06;0.00;60892.56;4672080;29;20038;-90
2022/03/07 06:29:32;;;;;;;2.10;1.08;;;;;;;20.90;0.00;60892.56;4673263;29;20385;-90
2022/03/07 06:32:11;;;;;;;1.97;1.47;;;;;;;-145.06;0.00;60892.56;4663432;29;20121;-91
2022/03/07 06:34:50;;;;;;;1.40;1.27;;;;;;;-145.06;0.00;60892.56;4673592;29;20279;-89
2022/03/07 06:37:30;;;;;;;1.30;1.15;;;;;;;-145.06;0.00;60892.56;4674010;29;20517;-90
2022/03/07 06:40:09;;;;;;;1.42;1.08;;;;;;;-145.06;0.00;60892.56;4670260;29;20486;-91
2022/03/07 06:42:50;;;;;;;1.65;1.10;;;;;;;-145.06;0.00;60892.56;4668905;29;20371;-89
2022/03/07 06:45:30;;;;;;;1.15;0.95;;;;;;;-145.06;0.00;60892.56;4668108;29;20374;-91
2022/03/07 06:48:09;;;;;;;1.88;1.30;;;;;;;-145.06;0.00;60892.56;4664242;29;20030;-91
2022/03/07 06:50:48;;;;;;;1.63;1.30;;;;;;;0.12;0.00;60892.56;4667407;29;20395;-90
2022/03/07 06:53:27;;;;;;;1.23;0.95;;;;;;;-145.06;0.00;60892.56;4670097;29;20545;-90
2022/03/07 06:56:08;;;;;;;1.40;1.15;;;;;;;0.11;0.00;78772.22;4669484;29;20042;-91
2022/03/07 06:58:48;;;;;;;1.00;0.90;;;;;;;-145.06;0.00;60892.56;4660055;29;20034;-90
2022/03/07 07:01:27;;;;;;;2.03;1.30;;;;;;;-145.06;0.00;60892.56;4671911;29;20045;-90
2022/03/07 07:04:06;;;;;;;4.00;1.50;;;;;;;0.16;0.00;60892.56;4662486;29;20770;-90
2022/03/07 07:06:45;;;;;;;1.73;1.20;;;;;;;-145.06;0.00;60892.56;4666504;29;20058;-91
2022/03/07 07:09:23;;;;;;;3.78;1.40;;;;;;;21.08;0.00;60892.56;4668879;29;20338;-90
2022/03/07 07:12:03;;;;;;;1.52;0.98;;;;;;;-145.06;0.00;60892.56;4673821;29;20038;-91
2022/03/07 07:14:42;;;;;;;2.20;1.30;;;;;;;-145.06;0.00;60892.56;4668366;29;20069;-90
2022/03/07 07:17:21;;;;;;;1.45;1.08;;;;;;;-145.06;0.00;60892.56;4673568;29;20034;-91
2022/03/07 07:20:00;;;;;;;1.50;1.02;;;;;;;-145.06;0.00;60892.56;4668202;29;20042;-90
2022/03/07 07:22:40;;;;;;;1.87;1.13;;;;;;;-145.06;0.00;60892.56;4660375;29;20034;-91
2022/03/07 07:25:19;;;;;;;1.90;1.10;;;;;;;-145.06;0.00;60892.56;4675272;29;20283;-90
2022/03/07 07:27:58;;;;;;;1.20;0.98;;;;;;;-145.06;0.00;60892.56;4666807;29;20043;-91
2022/03/07 07:30:37;;;;;;;3.30;0.82;;;;;;;-145.06;0.00;60892.56;4660438;29;20038;-92
2022/03/07 07:33:16;;;;;;;0.80;0.80;;;;;;;-145.06;0.00;60892.56;4670413;29;20046;-90
2022/03/07 07:35:56;;;;;;;1.55;1.05;;;;;;;-145.06;0.00;60892.56;4670206;29;20037;-90
2022/03/07 07:38:37;;;;;;;1.20;0.97;;;;;;;-145.06;0.00;60892.56;4670497;29;20037;-92
2022/03/07 07:41:17;;;;;;;1.20;1.00;;;;;;;-145.06;0.00;60892.56;4664835;29;20272;-91
2022/03/07 07:43:56;;;;;;;1.23;1.00;;;;;;;-145.06;0.00;60892.56;4665596;29;20333;-91
2022/03/07 07:46:37;;;;;;;1.30;1.08;;;;;;;-145.06;0.00;60892.56;4664236;29;20037;-91
2022/03/07 07:49:19;;;;;;;1.10;1.00;;;;;;;-145.06;0.00;60892.56;4661705;29;20042;-92
2022/03/07 07:52:02;;;;;;;2.53;1.15;;;;;;;-145.06;0.00;60892.56;4666230;29;20038;-92
2022/03/07 07:54:41;;;;;;;2.33;1.05;;;;;;;-145.06;0.00;60892.56;4673819;29;20041;-91
2022/03/07 07:57:20;;;;;;;1.65;1.20;;;;;;;-145.06;0.00;60892.56;4664141;29;20490;-91
2022/03/07 07:59:59;;;;;;;2.03;1.33;;;;;;;-145.06;0.00;60892.56;4660147;29;20050;-93
2022/03/07 08:02:38;;;;;;;1.77;1.27;;;;;;;-145.06;0.00;60892.56;4672674;29;20033;-90
2022/03/07 08:05:18;;;;;;;1.50;1.15;;;;;;;-145.06;0.00;60892.56;4689887;29;20045;-91
2022/03/07 08:08:01;;;;;;;;;;;;;;;-145.06;0.00;60892.56;4676476;29;20033;-92
2022/03/07 08:10:41;;;;;;;1.20;1.00;;;;;;;-145.06;0.00;60892.56;4669353;29;19916;-91
2022/03/07 08:13:26;;;;;;;1.67;1.20;;;;;;;-145.06;0.00;60892.56;4669191;29;20069;-92
2022/03/07 08:16:05;;;;;;;2.10;1.30;;;;;;;-145.06;0.00;60892.56;4683806;29;20026;-91
2022/03/07 08:18:49;;;;;;;1.17;0.90;;;;;;;-145.06;0.00;60892.56;4685660;29;20019;-91
2022/03/07 08:21:29;;;;;;;1.35;1.23;;;;;;;-145.06;0.00;60892.56;4677388;29;20283;-91
2022/03/07 08:24:11;;;;;;;1.85;1.60;;;;;;;-145.06;0.00;60892.56;4674772;29;20026;-91
2022/03/07 08:26:53;;;;;;;1.42;1.17;;;;;;;-145.06;0.00;60892.56;4665275;29;20446;-90
2022/03/07 08:29:32;;;;;;;1.92;1.40;;;;;;;-145.06;0.00;60892.56;4662370;29;20042;-90
2022/03/07 08:32:11;;;;;;;1.50;1.20;;;;;;;-145.06;0.00;60892.56;4662877;29;20034;-91
2022/03/07 08:34:51;;;;;;;2.10;1.20;;;;;;;-145.06;0.00;60892.56;4660738;29;20088;-91
2022/03/07 08:37:30;;;;;;;2.10;1.33;;;;;;;-145.06;0.00;60892.56;4671390;29;20030;-93
2022/03/07 08:40:09;;;;;;;4.97;1.35;;;;;;;-145.06;0.00;60892.56;4674417;29;20488;-90
2022/03/07 08:42:49;;;;;;;2.25;1.58;;;;;;;-145.06;0.00;60892.56;4674629;29;20038;-91
2022/03/07 08:45:28;;;;;;;1.08;0.90;;;;;;;-145.06;0.00;60892.56;4661581;29;20481;-91
2022/03/07 08:48:07;;;;;;;1.70;1.30;;;;;;;-145.06;0.00;60892.56;4667461;29;20038;-92
2022/03/07 08:50:48;;;;;;;1.80;1.20;;;;;;;-145.06;0.00;60892.56;4669795;29;20035;-91
2022/03/07 08:53:28;;;;;;;1.90;1.17;;;;;;;-145.06;0.00;60892.56;4674772;29;20033;-90
2022/03/07 08:56:07;;;;;;;0.98;0.90;;;;;;;-145.06;0.00;60892.56;4674565;29;20149;-92
2022/03/07 08:58:46;;;;;;;1.20;1.10;;;;;;;-145.06;0.00;60892.56;4674589;29;20034;-91
2022/03/07 09:01:26;;;;;;;1.05;1.00;;;;;;;-145.06;0.00;60892.56;4671467;29;20037;-92
2022/03/07 09:04:06;;;;;;;1.52;0.93;;;;;;;-145.06;0.00;60892.56;4674029;29;20061;-90
2022/03/07 09:06:45;;;;;;;0.97;0.90;;;;;;;-145.06;0.00;60892.56;4674835;29;20029;-90
2022/03/07 09:09:24;;;;;;;1.33;1.07;;;;;;;2.68;0.00;60892.56;4674183;29;20279;-90
2022/03/07 09:12:04;;;;;;;1.63;1.17;;;;;;;5.49;0.00;60892.56;4666544;29;20291;-90
2022/03/07 09:14:43;;;;;;;1.20;1.10;;;;;;;-145.06;0.00;60892.56;4674021;29;20038;-91
2022/03/07 09:17:24;;;;;;;1.07;0.97;;;;;;;-145.06;0.00;60892.56;4673217;29;20073;-90
2022/03/07 09:20:05;;;;;;;1.73;1.20;;;;;;;-145.06;0.00;60892.56;4673411;29;20070;-90
2022/03/07 09:22:44;;;;;;;1.33;1.23;;;;;;;-145.06;0.00;60892.56;4677210;29;20033;-91
2022/03/07 09:25:23;;;;;;;1.23;1.13;;;;;;;-145.06;0.00;60892.56;4685590;29;20034;-91
2022/03/07 09:28:05;;;;;;;3.27;1.43;;;;;;;-145.06;0.00;60892.56;4666843;29;20042;-90
2022/03/07 09:30:44;;;;;;;2.70;1.38;;;;;;;-145.06;0.00;60892.56;4664678;29;20034;-91
2022/03/07 09:33:24;;;;;;;1.70;1.40;;;;;;;-145.06;0.00;60892.56;4667856;29;20034;-89
2022/03/07 09:36:03;;;;;;;;;;;;;;;-145.06;0.00;60892.56;4676664;29;20101;-90
2022/03/07 09:38:43;;;;;;;1.40;1.10;;;;;;;-145.06;0.00;60892.56;4667734;29;20383;-91
2022/03/07 09:41:22;;;;;;;1.40;1.30;;;;;;;-145.06;0.00;60892.56;4662506;29;20030;-91
2022/03/07 09:44:01;;;;;;;1.37;1.27;;;;;;;-145.06;0.00;60892.56;4675481;29;20476;-91
2022/03/07 09:46:40;;;;;;;2.30;1.23;;;;;;;-145.06;0.00;60892.56;4673183;29;20121;-90
2022/03/07 09:49:19;;;;;;;1.30;1.05;;;;;;;-145.06;0.00;60892.56;4666829;29;20030;-91
2022/03/07 09:51:58;;;;;;;1.33;1.08;;;;;;;-145.06;0.00;60892.56;4675052;29;20034;-88
2022/03/07 09:54:38;;;;;;;1.73;1.38;;;;;;;-145.06;0.00;60892.56;4658807;29;20038;-91
2022/03/07 09:57:17;;;;;;;1.07;0.97;;;;;;;187.52;0.00;60892.56;4669981;29;20034;-91
2022/03/07 09:59:56;;;;;;;1.50;1.20;;;;;;;-145.06;0.00;60892.56;4666540;29;20042;-90
2022/03/07 10:02:35;;;;;;;1.33;1.20;;;;;;;-145.06;0.00;60892.56;4666413;29;20022;-90
2022/03/07 10:05:14;;;;;;;1.35;1.20;;;;;;;-145.06;0.00;60892.56;4667566;29;20046;-90
2022/03/07 10:07:53;;;;;;;1.52;1.20;;;;;;;-145.06;0.00;60892.56;4672754;29;20488;-90
2022/03/07 10:10:36;;;;;;;1.27;1.17;;;;;;;-145.06;0.00;60892.56;4671211;29;20034;-91
2022/03/07 10:13:16;;;;;;;2.03;1.00;;;;;;;-145.06;0.00;60892.56;4667364;29;20124;-90
2022/03/07 10:15:59;;;;;;;1.00;0.90;;;;;;;-145.06;0.00;60892.56;4676138;29;20038;-90
2022/03/07 10:18:49;;;;;;;1.10;1.00;;;;;;;-145.06;0.00;60892.56;4665600;29;20030;-91
2022/03/07 10:21:28;;;;;;;1.38;0.93;;;;;;;-145.06;0.00;60892.56;4660983;29;20030;-90
2022/03/07 10:24:07;;;;;;;1.02;0.90;;;;;;;-145.06;0.00;60892.56;4670227;29;20037;-90
2022/03/07 10:26:47;;;;;;;0.80;0.73;;;;;;;-145.06;0.00;60892.56;4672273;29;20072;-90
2022/03/07 10:29:26;;;;;;;;;;;;;;;-145.06;0.00;60892.56;4666873;29;20073;-90
2022/03/07 10:32:15;;;;;;;1.77;1.00;;;;;;;-145.06;0.00;60892.56;4672577;29;19925;-90
2022/03/07 10:34:55;;;;;;;1.42;1.20;;;;;;;-145.06;0.00;60892.56;4666490;29;20034;-90
2022/03/07 10:37:36;;;;;;;1.80;1.30;;;;;;;10.68;0.00;60892.56;4674324;29;20038;-90
2022/03/07 10:40:21;;;;;;;1.30;1.20;;;;;;;10.68;0.00;60892.56;4667355;29;20038;-91
2022/03/07 10:43:01;;;;;;;1.98;1.02;;;;;;;-145.06;0.00;60892.56;4672075;29;20034;-88
2022/03/07 10:45:46;;;;;;;1.40;1.15;;;;;;;-145.06;0.00;60892.56;4668460;29;20062;-90
2022/03/07 10:48:28;;;;;;;1.40;1.10;;;;;;;-145.06;0.00;60892.56;4672831;29;20117;-91
2022/03/07 10:51:15;;;;;;;1.38;1.15;;;;;;;-145.06;0.00;60892.56;4674197;29;20042;-91
2022/03/07 10:53:54;;;;;;;1.05;0.90;;;;;;;-145.06;0.00;60892.56;4656469;29;20042;-90
2022/03/07 10:56:33;;;;;;;0.85;0.82;;;;;;;-145.06;0.00;60892.56;4658897;29;20374;-90
2022/03/07 10:59:12;;;;;;;1.90;0.90;;;;;;;-145.06;0.00;60892.56;4673420;29;20239;-90
2022/03/07 11:02:09;;;;;;;1.05;0.80;;;;;;;-145.06;0.00;60892.56;4669782;29;20050;-89
2022/03/07 11:04:48;;;;;;;0.70;0.65;;;;;;;-145.06;0.00;60892.56;4670496;29;20113;-89
2022/03/07 11:07:27;;;;;;;1.30;0.95;;;;;;;6.79;0.00;60892.56;4663801;29;20038;-90
2022/03/07 11:10:08;;;;;;;0.80;0.80;;;;;;;-145.06;0.00;60892.56;4674142;29;20434;-90
2022/03/07 11:12:48;;;;;;;1.17;0.52;;;;;;;-145.06;0.00;60892.56;4670438;29;20113;-90
2022/03/07 11:15:26;;;;;;;1.02;0.90;;;;;;;-145.06;0.00;60892.56;4674616;29;20042;-90
2022/03/07 11:18:08;;;;;;;1.23;0.90;;;;;;;-145.06;0.00;60892.56;4664648;29;20046;-90
2022/03/07 11:20:47;;;;;;;0.70;0.70;;;;;;;-145.06;0.00;60892.56;4666637;29;20382;-90
2022/03/07 11:23:26;;;;;;;1.10;0.90;;;;;;;-145.06;0.00;60892.56;4674365;29;20042;-90
2022/03/07 11:26:06;;;;;;;1.33;1.10;;;;;;;-145.06;0.00;60892.56;4674237;29;20286;-90
2022/03/07 11:28:51;;;;;;;1.48;0.90;;;;;;;-145.06;0.00;60892.56;4673972;29;20030;-91
2022/03/07 11:31:32;;;;;;;1.08;0.98;;;;;;;-145.06;0.00;60892.56;4669759;29;20034;-90
2022/03/07 11:34:12;;;;;;;1.25;0.80;;;;;;;-145.06;0.00;60892.56;4673024;29;20437;-91
2022/03/07 11:36:51;;;;;;;1.38;0.95;;;;;;;-145.06;0.00;60892.56;4674179;29;20050;-91
2022/03/07 11:39:35;;;;;;;1.50;0.90;;;;;;;10.68;0.00;60892.56;4674081;29;20049;-90
2022/03/07 11:42:17;;;;;;;0.80;0.80;;;;;;;187.52;0.00;60892.56;4663657;29;20386;-90
2022/03/07 11:45:08;;;;;;;1.00;0.70;;;;;;;-145.06;0.00;60892.56;4669166;29;20069;-90
2022/03/07 11:47:50;;;;;;;0.80;0.60;;;;;;;-145.06;0.00;60892.56;4663111;29;20039;-91
2022/03/07 11:50:31;;;;;;;0.77;0.70;;;;;;;-145.06;0.00;60892.56;4685694;29;20070;-90
2022/03/07 11:53:10;;;;;;;4.38;1.05;;;;;;;-145.06;0.00;60892.56;4686453;29;20041;-91
2022/03/07 11:55:51;;;;;;;1.10;0.85;;;;;;;10.68;0.00;60892.56;4690626;29;20125;-89
2022/03/07 11:58:35;;;;;;;1.33;1.20;;;;;;;-145.06;0.00;60892.56;4674526;29;20042;-90
2022/03/07 12:01:14;;;;;;;1.15;0.77;;;;;;;-145.06;0.00;60892.56;4673964;29;20030;-90
2022/03/07 12:03:53;;;;;;;1.25;0.68;;;;;;;-145.06;0.00;60892.56;4662703;29;20034;-90
2022/03/07 12:06:43;;;;;;;0.60;0.60;;;;;;;-145.06;0.00;60892.56;4666437;29;20042;-91
2022/03/07 12:09:32;;;;;;;0.80;0.65;;;;;;;-145.06;0.00;60892.56;4670489;29;20034;-90
2022/03/07 12:12:15;;;;;;;0.77;0.68;;;;;;;9.38;0.00;60892.56;4666877;29;20022;-90
2022/03/07 12:14:54;;;;;;;0.93;0.80;;;;;;;-145.06;0.00;60892.56;4665386;29;20045;-91
2022/03/07 12:17:33;;;;;;;0.60;0.60;;;;;;;-145.06;0.00;60892.56;4670967;29;20038;-90
2022/03/07 12:20:12;;;;;;;0.55;0.55;;;;;;;-145.06;0.00;60892.56;4665761;29;20030;-90
2022/03/07 12:22:51;;;;;;;1.00;0.87;;;;;;;-145.06;0.00;60892.56;4686118;29;20465;-91
2022/03/07 12:25:32;;;;;;;1.00;0.90;;;;;;;9.22;0.00;60892.56;4666685;29;20042;-90